createdAt,value
2018-09-12T00:00:59.501Z,1024.19
2018-09-12T00:01:59.260Z,1024.22
2018-09-12T00:02:59.179Z,1024.2
2018-09-12T00:03:59.174Z,1024.22
2018-09-12T00:04:59.179Z,1024.23
2018-09-12T00:05:59.218Z,1024.23
2018-09-12T00:06:59.460Z,1024.19
2018-09-12T00:07:59.001Z,1024.17
2018-09-12T00:08:59.166Z,1024.17
2018-09-12T00:09:59.259Z,1024.12
2018-09-12T00:10:59.215Z,1024.17
2018-09-12T00:11:59.224Z,1024.15
2018-09-12T00:12:59.171Z,1024.15
2018-09-12T00:13:59.206Z,1024.11
2018-09-12T00:14:59.258Z,1024.11
2018-09-12T00:15:59.224Z,1024.07
2018-09-12T00:16:59.232Z,1024.06
2018-09-12T00:17:59.343Z,1024.07
2018-09-12T00:18:59.408Z,1024.07
2018-09-12T00:19:59.193Z,1024.09
2018-09-12T00:20:59.277Z,1024.04
2018-09-12T00:21:59.264Z,1024.06
2018-09-12T00:22:59.498Z,1024.05
2018-09-12T00:23:59.817Z,1024.05
2018-09-12T00:24:59.266Z,1024.04
2018-09-12T00:25:59.525Z,1024.03
2018-09-12T00:26:59.516Z,1023.99
2018-09-12T00:27:59.534Z,1024.02
2018-09-12T00:28:59.356Z,1024.04
2018-09-12T00:29:59.440Z,1024.04
2018-09-12T00:30:59.242Z,1024.03
2018-09-12T00:31:59.554Z,1024.03
2018-09-12T00:32:59.412Z,1024.01
2018-09-12T00:33:59.275Z,1024.02
2018-09-12T00:34:59.485Z,1023.95
2018-09-12T00:35:59.237Z,1023.97
2018-09-12T00:36:59.274Z,1023.97
2018-09-12T00:37:59.511Z,1023.98
2018-09-12T00:38:59.386Z,1023.98
2018-09-12T00:39:59.234Z,1023.99
2018-09-12T00:40:59.261Z,1024
2018-09-12T00:41:59.216Z,1023.97
2018-09-12T00:42:59.264Z,1024.02
2018-09-12T00:43:59.288Z,1023.98
2018-09-12T00:44:59.267Z,1023.99
2018-09-12T00:45:59.183Z,1024.02
2018-09-12T00:46:59.308Z,1024
2018-09-12T00:47:59.552Z,1023.99
2018-09-12T00:48:59.276Z,1023.99
2018-09-12T00:49:59.243Z,1023.99
2018-09-12T00:50:59.372Z,1023.95
2018-09-12T00:51:59.354Z,1023.93
2018-09-12T00:52:59.218Z,1023.91
2018-09-12T00:53:59.401Z,1023.93
2018-09-12T00:54:59.234Z,1023.97
2018-09-12T00:55:59.226Z,1023.98
2018-09-12T00:56:59.233Z,1023.96
2018-09-12T00:57:59.222Z,1023.95
2018-09-12T00:58:59.251Z,1023.96
2018-09-12T00:59:59.326Z,1023.96
2018-09-12T01:00:59.363Z,1023.91
2018-09-12T01:01:59.251Z,1023.95
2018-09-12T01:02:59.414Z,1023.93
2018-09-12T01:03:59.310Z,1023.9
2018-09-12T01:04:59.322Z,1023.87
2018-09-12T01:05:59.411Z,1023.88
2018-09-12T01:06:59.282Z,1023.88
2018-09-12T01:07:59.361Z,1023.87
2018-09-12T01:08:59.270Z,1023.86
2018-09-12T01:09:59.244Z,1023.83
2018-09-12T01:10:59.313Z,1023.8
2018-09-12T01:11:59.549Z,1023.83
2018-09-12T01:12:59.219Z,1023.82
2018-09-12T01:13:59.287Z,1023.85
2018-09-12T01:14:59.356Z,1023.82
2018-09-12T01:15:59.274Z,1023.82
2018-09-12T01:16:59.406Z,1023.79
2018-09-12T01:17:59.286Z,1023.78
2018-09-12T01:18:59.068Z,1023.79
2018-09-12T01:19:59.416Z,1023.76
2018-09-12T01:20:59.200Z,1023.75
2018-09-12T01:21:59.304Z,1023.77
2018-09-12T01:22:59.285Z,1023.75
2018-09-12T01:23:59.309Z,1023.76
2018-09-12T01:24:59.282Z,1023.71
2018-09-12T01:25:59.227Z,1023.64
2018-09-12T01:26:59.316Z,1023.74
2018-09-12T01:27:59.242Z,1023.71
2018-09-12T01:28:59.237Z,1023.73
2018-09-12T01:29:59.266Z,1023.74
2018-09-12T01:30:59.303Z,1023.75
2018-09-12T01:31:59.248Z,1023.74
2018-09-12T01:32:59.553Z,1023.71
2018-09-12T01:33:59.232Z,1023.7
2018-09-12T01:34:59.314Z,1023.68
2018-09-12T01:35:59.493Z,1023.67
2018-09-12T01:36:59.298Z,1023.7
2018-09-12T01:37:59.413Z,1023.69
2018-09-12T01:38:59.255Z,1023.66
2018-09-12T01:39:59.232Z,1023.67
2018-09-12T01:40:59.468Z,1023.68
2018-09-12T01:41:59.239Z,1023.69
2018-09-12T01:42:59.620Z,1023.67
2018-09-12T01:43:59.219Z,1023.7
2018-09-12T01:44:59.328Z,1023.66
2018-09-12T01:45:59.299Z,1023.65
2018-09-12T01:46:59.676Z,1023.68
2018-09-12T01:47:59.355Z,1023.68
2018-09-12T01:48:59.567Z,1023.71
2018-09-12T01:49:59.482Z,1023.65
2018-09-12T01:50:59.533Z,1023.66
2018-09-12T01:51:59.360Z,1023.68
2018-09-12T01:52:59.573Z,1023.68
2018-09-12T01:53:59.401Z,1023.67
2018-09-12T01:54:59.422Z,1023.67
2018-09-12T01:55:59.303Z,1023.7
2018-09-12T01:56:59.271Z,1023.71
2018-09-12T01:57:59.527Z,1023.65
2018-09-12T01:58:59.341Z,1023.66
2018-09-12T01:59:59.282Z,1023.56
2018-09-12T02:00:59.304Z,1023.62
2018-09-12T02:01:59.325Z,1023.63
2018-09-12T02:02:59.333Z,1023.61
2018-09-12T02:03:59.199Z,1023.57
2018-09-12T02:04:59.120Z,1023.58
2018-09-12T02:05:59.294Z,1023.59
2018-09-12T02:06:59.291Z,1023.56
2018-09-12T02:07:59.337Z,1023.58
2018-09-12T02:08:59.616Z,1023.53
2018-09-12T02:09:59.280Z,1023.57
2018-09-12T02:10:59.309Z,1023.58
2018-09-12T02:11:59.288Z,1023.54
2018-09-12T02:12:59.313Z,1023.55
2018-09-12T02:13:59.287Z,1023.55
2018-09-12T02:14:59.254Z,1023.54
2018-09-12T02:15:59.310Z,1023.49
2018-09-12T02:16:59.343Z,1023.5
2018-09-12T02:17:59.266Z,1023.47
2018-09-12T02:18:59.378Z,1023.47
2018-09-12T02:19:59.432Z,1023.49
2018-09-12T02:20:59.386Z,1023.42
2018-09-12T02:21:59.592Z,1023.44
2018-09-12T02:22:59.478Z,1023.46
2018-09-12T02:23:59.502Z,1023.44
2018-09-12T02:24:59.416Z,1023.47
2018-09-12T02:25:59.389Z,1023.43
2018-09-12T02:26:59.393Z,1023.41
2018-09-12T02:27:59.345Z,1023.44
2018-09-12T02:28:59.628Z,1023.44
2018-09-12T02:29:59.323Z,1023.43
2018-09-12T02:30:59.263Z,1023.41
2018-09-12T02:31:59.470Z,1023.38
2018-09-12T02:32:59.351Z,1023.37
2018-09-12T02:33:59.636Z,1023.42
2018-09-12T02:34:59.292Z,1023.38
2018-09-12T02:35:59.288Z,1023.37
2018-09-12T02:36:59.501Z,1023.36
2018-09-12T02:37:59.400Z,1023.38
2018-09-12T02:38:59.698Z,1023.36
2018-09-12T02:39:59.177Z,1023.34
2018-09-12T02:40:59.367Z,1023.36
2018-09-12T02:41:59.263Z,1023.33
2018-09-12T02:42:59.750Z,1023.36
2018-09-12T02:43:59.349Z,1023.28
2018-09-12T02:44:59.377Z,1023.29
2018-09-12T02:45:59.698Z,1023.29
2018-09-12T02:46:59.319Z,1023.31
2018-09-12T02:47:59.458Z,1023.35
2018-09-12T02:48:59.371Z,1023.35
2018-09-12T02:49:59.277Z,1023.36
2018-09-12T02:50:59.464Z,1023.38
2018-09-12T02:51:59.480Z,1023.38
2018-09-12T02:52:59.311Z,1023.37
2018-09-12T02:53:59.317Z,1023.36
2018-09-12T02:54:59.361Z,1023.36
2018-09-12T02:55:59.318Z,1023.37
2018-09-12T02:56:59.382Z,1023.35
2018-09-12T02:57:59.447Z,1023.37
2018-09-12T02:58:59.323Z,1023.38
2018-09-12T02:59:59.473Z,1023.4
2018-09-12T03:00:59.589Z,1023.4
2018-09-12T03:01:59.352Z,1023.37
2018-09-12T03:02:59.376Z,1023.39
2018-09-12T03:03:59.771Z,1023.36
2018-09-12T03:04:59.551Z,1023.33
2018-09-12T03:05:59.492Z,1023.4
2018-09-12T03:06:59.302Z,1023.41
2018-09-12T03:07:59.531Z,1023.37
2018-09-12T03:08:59.281Z,1023.35
2018-09-12T03:09:59.305Z,1023.36
2018-09-12T03:10:59.616Z,1023.33
2018-09-12T03:11:59.381Z,1023.33
2018-09-12T03:12:59.305Z,1023.28
2018-09-12T03:13:59.290Z,1023.3
2018-09-12T03:14:59.348Z,1023.26
2018-09-12T03:15:59.411Z,1023.22
2018-09-12T03:16:59.318Z,1023.2
2018-09-12T03:17:59.317Z,1023.22
2018-09-12T03:18:59.771Z,1023.24
2018-09-12T03:19:59.482Z,1023.2
2018-09-12T03:20:59.982Z,1023.19
2018-09-12T03:21:59.585Z,1023.22
2018-09-12T03:22:59.326Z,1023.25
2018-09-12T03:23:59.416Z,1023.25
2018-09-12T03:24:59.332Z,1023.25
2018-09-12T03:25:59.331Z,1023.21
2018-09-12T03:26:59.338Z,1023.23
2018-09-12T03:27:59.467Z,1023.22
2018-09-12T03:28:59.381Z,1023.21
2018-09-12T03:29:59.756Z,1023.21
2018-09-12T03:30:59.400Z,1023.18
2018-09-12T03:31:59.476Z,1023.18
2018-09-12T03:32:59.424Z,1023.18
2018-09-12T03:33:59.435Z,1023.16
2018-09-12T03:34:59.540Z,1023.13
2018-09-12T03:35:59.711Z,1023.12
2018-09-12T03:36:59.305Z,1023.13
2018-09-12T03:37:59.401Z,1023.13
2018-09-12T03:38:59.320Z,1023.11
2018-09-12T03:39:59.571Z,1023.12
2018-09-12T03:40:59.529Z,1023.13
2018-09-12T03:41:59.300Z,1023.15
2018-09-12T03:42:59.316Z,1023.16
2018-09-12T03:43:59.257Z,1023.19
2018-09-12T03:44:59.504Z,1023.19
2018-09-12T03:45:59.407Z,1023.2
2018-09-12T03:46:59.353Z,1023.21
2018-09-12T03:48:00.046Z,1023.24
2018-09-12T03:48:59.216Z,1023.29
2018-09-12T03:49:59.336Z,1023.27
2018-09-12T03:50:59.372Z,1023.26
2018-09-12T03:51:59.809Z,1023.3
2018-09-12T03:52:59.624Z,1023.31
2018-09-12T03:53:59.426Z,1023.33
2018-09-12T03:54:59.440Z,1023.29
2018-09-12T03:55:59.325Z,1023.32
2018-09-12T03:56:59.346Z,1023.29
2018-09-12T03:57:59.345Z,1023.27
2018-09-12T03:58:59.573Z,1023.28
2018-09-12T03:59:59.393Z,1023.3
2018-09-12T04:00:59.347Z,1023.35
2018-09-12T04:01:59.403Z,1023.33
2018-09-12T04:02:59.374Z,1023.36
2018-09-12T04:03:59.725Z,1023.38
2018-09-12T04:04:59.663Z,1023.36
2018-09-12T04:05:59.403Z,1023.36
2018-09-12T04:06:59.382Z,1023.36
2018-09-12T04:07:59.487Z,1023.33
2018-09-12T04:08:59.380Z,1023.34
2018-09-12T04:09:59.408Z,1023.35
2018-09-12T04:10:59.332Z,1023.32
2018-09-12T04:11:59.336Z,1023.33
2018-09-12T04:12:59.343Z,1023.31
2018-09-12T04:13:59.441Z,1023.34
2018-09-12T04:14:59.379Z,1023.31
2018-09-12T04:15:59.361Z,1023.33
2018-09-12T04:17:01.416Z,1023.34
2018-09-12T04:17:59.367Z,1023.37
2018-09-12T04:18:59.371Z,1023.34
2018-09-12T04:19:59.425Z,1023.33
2018-09-12T04:20:59.337Z,1023.32
2018-09-12T04:21:59.409Z,1023.33
2018-09-12T04:22:59.387Z,1023.31
2018-09-12T04:23:59.393Z,1023.35
2018-09-12T04:24:59.595Z,1023.34
2018-09-12T04:25:59.454Z,1023.32
2018-09-12T04:26:59.588Z,1023.35
2018-09-12T04:27:59.413Z,1023.36
2018-09-12T04:28:59.566Z,1023.34
2018-09-12T04:29:59.447Z,1023.38
2018-09-12T04:30:59.660Z,1023.37
2018-09-12T04:31:59.423Z,1023.36
2018-09-12T04:32:59.730Z,1023.37
2018-09-12T04:33:59.404Z,1023.38
2018-09-12T04:34:59.698Z,1023.38
2018-09-12T04:35:59.436Z,1023.36
2018-09-12T04:36:59.635Z,1023.34
2018-09-12T04:37:59.356Z,1023.3
2018-09-12T04:38:59.726Z,1023.27
2018-09-12T04:39:59.734Z,1023.28
2018-09-12T04:40:59.455Z,1023.25
2018-09-12T04:42:00.262Z,1023.29
2018-09-12T04:42:59.405Z,1023.29
2018-09-12T04:43:59.590Z,1023.3
2018-09-12T04:44:59.447Z,1023.26
2018-09-12T04:45:59.736Z,1023.28
2018-09-12T04:46:59.571Z,1023.32
2018-09-12T04:47:59.431Z,1023.28
2018-09-12T04:48:59.445Z,1023.32
2018-09-12T04:49:59.455Z,1023.31
2018-09-12T04:50:59.515Z,1023.3
2018-09-12T04:51:59.525Z,1023.27
2018-09-12T04:52:59.380Z,1023.26
2018-09-12T04:53:59.727Z,1023.3
2018-09-12T04:54:59.776Z,1023.29
2018-09-12T04:55:59.282Z,1023.33
2018-09-12T04:56:59.382Z,1023.32
2018-09-12T04:57:59.934Z,1023.31
2018-09-12T04:58:59.534Z,1023.3
2018-09-12T04:59:59.412Z,1023.3
2018-09-12T05:00:59.444Z,1023.32
2018-09-12T05:01:59.991Z,1023.32
2018-09-12T05:02:59.452Z,1023.32
2018-09-12T05:03:59.419Z,1023.32
2018-09-12T05:04:59.484Z,1023.31
2018-09-12T05:05:59.489Z,1023.35
2018-09-12T05:06:59.431Z,1023.38
2018-09-12T05:07:59.370Z,1023.38
2018-09-12T05:08:59.530Z,1023.38
2018-09-12T05:09:59.458Z,1023.39
2018-09-12T05:10:59.554Z,1023.39
2018-09-12T05:11:59.438Z,1023.39
2018-09-12T05:12:59.479Z,1023.39
2018-09-12T05:13:59.403Z,1023.38
2018-09-12T05:14:59.451Z,1023.38
2018-09-12T05:15:59.634Z,1023.41
2018-09-12T05:16:59.530Z,1023.41
2018-09-12T05:17:59.390Z,1023.43
2018-09-12T05:18:59.475Z,1023.4
2018-09-12T05:19:59.538Z,1023.41
2018-09-12T05:20:59.393Z,1023.41
2018-09-12T05:21:59.405Z,1023.41
2018-09-12T05:22:59.415Z,1023.42
2018-09-12T05:23:59.412Z,1023.36
2018-09-12T05:24:59.461Z,1023.4
2018-09-12T05:25:59.714Z,1023.37
2018-09-12T05:26:59.586Z,1023.35
2018-09-12T05:27:59.641Z,1023.36
2018-09-12T05:28:59.462Z,1023.35
2018-09-12T05:29:59.803Z,1023.32
2018-09-12T05:30:59.428Z,1023.31
2018-09-12T05:31:59.645Z,1023.3
2018-09-12T05:32:59.195Z,1023.3
2018-09-12T05:33:59.476Z,1023.33
2018-09-12T05:34:59.612Z,1023.32
2018-09-12T05:35:59.619Z,1023.36
2018-09-12T05:36:59.507Z,1023.33
2018-09-12T05:37:59.431Z,1023.35
2018-09-12T05:38:59.633Z,1023.31
2018-09-12T05:39:59.379Z,1023.34
2018-09-12T05:40:59.446Z,1023.33
2018-09-12T05:41:59.500Z,1023.29
2018-09-12T05:42:59.468Z,1023.35
2018-09-12T05:43:59.426Z,1023.3
2018-09-12T05:44:59.471Z,1023.31
2018-09-12T05:45:59.691Z,1023.29
2018-09-12T05:46:59.480Z,1023.35
2018-09-12T05:47:59.435Z,1023.34
2018-09-12T05:49:06.428Z,1023.38
2018-09-12T05:50:00.436Z,1023.36
2018-09-12T05:51:01.002Z,1023.35
2018-09-12T05:51:59.529Z,1023.32
2018-09-12T05:52:59.678Z,1023.33
2018-09-12T05:53:59.458Z,1023.35
2018-09-12T05:54:59.446Z,1023.34
2018-09-12T05:55:59.729Z,1023.29
2018-09-12T05:56:59.440Z,1023.32
2018-09-12T05:57:59.653Z,1023.28
2018-09-12T05:58:59.385Z,1023.31
2018-09-12T05:59:59.404Z,1023.28
2018-09-12T06:00:59.416Z,1023.25
2018-09-12T06:01:59.670Z,1023.27
2018-09-12T06:02:59.494Z,1023.25
2018-09-12T06:03:59.478Z,1023.31
2018-09-12T06:04:59.733Z,1023.29
2018-09-12T06:05:59.600Z,1023.3
2018-09-12T06:06:59.915Z,1023.26
2018-09-12T06:07:59.525Z,1023.27
2018-09-12T06:08:59.696Z,1023.31
2018-09-12T06:09:59.597Z,1023.27
2018-09-12T06:10:59.450Z,1023.28
2018-09-12T06:11:59.634Z,1023.29
2018-09-12T06:12:59.655Z,1023.28
2018-09-12T06:13:59.558Z,1023.3
2018-09-12T06:14:59.429Z,1023.3
2018-09-12T06:15:59.542Z,1023.29
2018-09-12T06:16:59.421Z,1023.28
2018-09-12T06:17:59.481Z,1023.27
2018-09-12T06:18:59.430Z,1023.27
2018-09-12T06:19:59.508Z,1023.29
2018-09-12T06:20:59.434Z,1023.3
2018-09-12T06:21:59.714Z,1023.27
2018-09-12T06:22:59.539Z,1023.29
2018-09-12T06:23:59.617Z,1023.29
2018-09-12T06:24:59.249Z,1023.32
2018-09-12T06:25:59.705Z,1023.27
2018-09-12T06:26:59.565Z,1023.33
2018-09-12T06:27:59.601Z,1023.33
2018-09-12T06:28:59.499Z,1023.33
2018-09-12T06:29:59.508Z,1023.36
2018-09-12T06:30:59.512Z,1023.35
2018-09-12T06:31:59.439Z,1023.35
2018-09-12T06:32:59.413Z,1023.3
2018-09-12T06:33:59.579Z,1023.34
2018-09-12T06:34:59.542Z,1023.4
2018-09-12T06:35:59.461Z,1023.36
2018-09-12T06:36:59.533Z,1023.37
2018-09-12T06:37:59.458Z,1023.38
2018-09-12T06:38:59.364Z,1023.38
2018-09-12T06:39:59.550Z,1023.34
2018-09-12T06:40:59.467Z,1023.32
2018-09-12T06:41:59.579Z,1023.37
2018-09-12T06:42:59.742Z,1023.31
2018-09-12T06:43:59.503Z,1023.34
2018-09-12T06:44:59.405Z,1023.35
2018-09-12T06:45:59.487Z,1023.33
2018-09-12T06:46:59.621Z,1023.38
2018-09-12T06:48:00.414Z,1023.36
2018-09-12T06:48:59.591Z,1023.4
2018-09-12T06:49:59.516Z,1023.36
2018-09-12T06:50:59.444Z,1023.32
2018-09-12T06:51:59.551Z,1023.3
2018-09-12T06:52:59.505Z,1023.29
2018-09-12T06:53:59.484Z,1023.3
2018-09-12T06:54:59.519Z,1023.3
2018-09-12T06:55:59.460Z,1023.3
2018-09-12T06:56:59.489Z,1023.27
2018-09-12T06:57:59.445Z,1023.32
2018-09-12T06:58:59.574Z,1023.25
2018-09-12T06:59:59.561Z,1023.24
2018-09-12T07:00:59.655Z,1023.22
2018-09-12T07:01:59.547Z,1023.24
2018-09-12T07:02:59.516Z,1023.24
2018-09-12T07:03:59.562Z,1023.28
2018-09-12T07:04:59.532Z,1023.25
2018-09-12T07:05:59.569Z,1023.24
2018-09-12T07:06:59.440Z,1023.24
2018-09-12T07:07:59.711Z,1023.21
2018-09-12T07:08:59.594Z,1023.22
2018-09-12T07:09:59.554Z,1023.18
2018-09-12T07:10:59.567Z,1023.24
2018-09-12T07:11:59.680Z,1023.23
2018-09-12T07:12:59.598Z,1023.25
2018-09-12T07:13:59.548Z,1023.22
2018-09-12T07:15:00.369Z,1023.24
2018-09-12T07:15:59.969Z,1023.22
2018-09-12T07:16:59.297Z,1023.22
2018-09-12T07:17:59.620Z,1023.22
2018-09-12T07:18:59.596Z,1023.28
2018-09-12T07:19:59.893Z,1023.31
2018-09-12T07:20:59.447Z,1023.27
2018-09-12T07:21:59.711Z,1023.28
2018-09-12T07:22:59.578Z,1023.3
2018-09-12T07:23:59.700Z,1023.29
2018-09-12T07:24:59.452Z,1023.23
2018-09-12T07:25:59.485Z,1023.22
2018-09-12T07:26:59.618Z,1023.2
2018-09-12T07:27:59.541Z,1023.19
2018-09-12T07:28:59.507Z,1023.18
2018-09-12T07:29:59.507Z,1023.2
2018-09-12T07:30:59.479Z,1023.24
2018-09-12T07:31:59.623Z,1023.25
2018-09-12T07:32:59.604Z,1023.25
2018-09-12T07:33:59.618Z,1023.25
2018-09-12T07:34:59.652Z,1023.24
2018-09-12T07:35:59.488Z,1023.27
2018-09-12T07:36:59.616Z,1023.29
2018-09-12T07:37:59.555Z,1023.3
2018-09-12T07:38:59.538Z,1023.32
2018-09-12T07:39:59.584Z,1023.31
2018-09-12T07:40:59.786Z,1023.3
2018-09-12T07:41:59.564Z,1023.33
2018-09-12T07:42:59.959Z,1023.31
2018-09-12T07:43:59.508Z,1023.25
2018-09-12T07:44:59.572Z,1023.25
2018-09-12T07:45:59.522Z,1023.27
2018-09-12T07:46:59.983Z,1023.29
2018-09-12T07:48:00.094Z,1023.32
2018-09-12T07:48:59.686Z,1023.28
2018-09-12T07:49:59.660Z,1023.27
2018-09-12T07:50:59.558Z,1023.24
2018-09-12T07:51:59.653Z,1023.23
2018-09-12T07:52:59.465Z,1023.26
2018-09-12T07:53:59.486Z,1023.3
2018-09-12T07:54:59.580Z,1023.29
2018-09-12T07:55:59.708Z,1023.29
2018-09-12T07:57:00.157Z,1023.26
2018-09-12T07:57:59.654Z,1023.32
2018-09-12T07:58:59.653Z,1023.3
2018-09-12T07:59:59.645Z,1023.31
2018-09-12T08:00:59.720Z,1023.31
2018-09-12T08:01:59.567Z,1023.32
2018-09-12T08:02:59.745Z,1023.28
2018-09-12T08:03:59.540Z,1023.28
2018-09-12T08:04:59.974Z,1023.27
2018-09-12T08:05:59.704Z,1023.26
2018-09-12T08:06:59.559Z,1023.26
2018-09-12T08:07:59.591Z,1023.28
2018-09-12T08:08:59.725Z,1023.33
2018-09-12T08:09:59.541Z,1023.27
2018-09-12T08:10:59.527Z,1023.25
2018-09-12T08:11:59.601Z,1023.25
2018-09-12T08:12:59.546Z,1023.23
2018-09-12T08:13:59.474Z,1023.25
2018-09-12T08:14:59.572Z,1023.2
2018-09-12T08:15:59.653Z,1023.24
2018-09-12T08:16:59.706Z,1023.23
2018-09-12T08:17:59.663Z,1023.23
2018-09-12T08:18:59.693Z,1023.29
2018-09-12T08:19:59.859Z,1023.25
2018-09-12T08:20:59.488Z,1023.24
2018-09-12T08:21:59.530Z,1023.21
2018-09-12T08:23:00.024Z,1023.21
2018-09-12T08:23:59.678Z,1023.16
2018-09-12T08:24:59.560Z,1023.13
2018-09-12T08:25:59.549Z,1023.12
2018-09-12T08:26:59.576Z,1023.12
2018-09-12T08:27:59.584Z,1023.1
2018-09-12T08:28:59.605Z,1023.09
2018-09-12T08:29:59.693Z,1023.11
2018-09-12T08:30:59.579Z,1023.11
2018-09-12T08:31:59.664Z,1023.13
2018-09-12T08:32:59.537Z,1023.08
2018-09-12T08:33:59.567Z,1023.11
2018-09-12T08:34:59.628Z,1023.1
2018-09-12T08:35:59.557Z,1023.11
2018-09-12T08:36:59.844Z,1023.1
2018-09-12T08:37:59.567Z,1023.08
2018-09-12T08:38:59.543Z,1023.1
2018-09-12T08:40:00.177Z,1023.09
2018-09-12T08:41:00.253Z,1023.1
2018-09-12T08:41:59.567Z,1023.11
2018-09-12T08:42:59.620Z,1023.12
2018-09-12T08:43:59.585Z,1023.1
2018-09-12T08:44:59.773Z,1023.12
2018-09-12T08:45:59.820Z,1023.12
2018-09-12T08:46:59.889Z,1023.12
2018-09-12T08:47:59.583Z,1023.13
2018-09-12T08:48:59.655Z,1023.11
2018-09-12T08:49:59.529Z,1023.1
2018-09-12T08:50:59.650Z,1023.1
2018-09-12T08:51:59.661Z,1023.06
2018-09-12T08:52:59.839Z,1023.07
2018-09-12T08:54:00.064Z,1023.04
2018-09-12T08:54:59.738Z,1023.08
2018-09-12T08:55:59.786Z,1023.01
2018-09-12T08:56:59.718Z,1023.01
2018-09-12T08:57:59.542Z,1022.99
2018-09-12T08:58:59.530Z,1022.99
2018-09-12T08:59:59.663Z,1022.98
2018-09-12T09:00:59.598Z,1023.02
2018-09-12T09:01:59.767Z,1023.05
2018-09-12T09:02:59.634Z,1023.05
2018-09-12T09:03:59.577Z,1023.02
2018-09-12T09:04:59.596Z,1023.01
2018-09-12T09:05:59.560Z,1023.02
2018-09-12T09:06:59.598Z,1023
2018-09-12T09:07:59.733Z,1022.97
2018-09-12T09:08:59.687Z,1023
2018-09-12T09:09:59.584Z,1022.96
2018-09-12T09:10:59.387Z,1022.95
2018-09-12T09:11:59.671Z,1022.95
2018-09-12T09:12:59.638Z,1022.94
2018-09-12T09:13:59.566Z,1022.94
2018-09-12T09:14:59.615Z,1022.93
2018-09-12T09:15:59.602Z,1022.96
2018-09-12T09:16:59.778Z,1022.91
2018-09-12T09:17:59.843Z,1022.92
2018-09-12T09:18:59.617Z,1022.93
2018-09-12T09:19:59.643Z,1022.92
2018-09-12T09:20:59.808Z,1022.91
2018-09-12T09:21:59.821Z,1022.91
2018-09-12T09:22:59.644Z,1022.92
2018-09-12T09:23:59.570Z,1022.94
2018-09-12T09:24:59.587Z,1022.93
2018-09-12T09:25:59.652Z,1022.93
2018-09-12T09:26:59.537Z,1022.97
2018-09-12T09:27:59.717Z,1022.91
2018-09-12T09:29:00.072Z,1022.91
2018-09-12T09:29:59.815Z,1022.88
2018-09-12T09:30:59.660Z,1022.89
2018-09-12T09:31:59.603Z,1022.87
2018-09-12T09:32:59.603Z,1022.86
2018-09-12T09:33:59.607Z,1022.83
2018-09-12T09:35:00.236Z,1022.79
2018-09-12T09:35:59.479Z,1022.85
2018-09-12T09:36:59.680Z,1022.8
2018-09-12T09:37:59.828Z,1022.8
2018-09-12T09:38:59.683Z,1022.81
2018-09-12T09:39:59.925Z,1022.76
2018-09-12T09:40:59.640Z,1022.73
2018-09-12T09:41:59.674Z,1022.77
2018-09-12T09:42:59.591Z,1022.75
2018-09-12T09:43:59.694Z,1022.7
2018-09-12T09:44:59.675Z,1022.69
2018-09-12T09:45:59.629Z,1022.68
2018-09-12T09:46:59.621Z,1022.68
2018-09-12T09:47:59.782Z,1022.64
2018-09-12T09:48:59.621Z,1022.66
2018-09-12T09:49:59.659Z,1022.66
2018-09-12T09:50:59.663Z,1022.6
2018-09-12T09:51:59.630Z,1022.61
2018-09-12T09:52:59.532Z,1022.59
2018-09-12T09:53:59.648Z,1022.54
2018-09-12T09:54:59.701Z,1022.55
2018-09-12T09:55:59.761Z,1022.54
2018-09-12T09:56:59.592Z,1022.52
2018-09-12T09:57:59.679Z,1022.52
2018-09-12T09:58:59.681Z,1022.49
2018-09-12T09:59:59.876Z,1022.46
2018-09-12T10:00:59.682Z,1022.48
2018-09-12T10:01:59.711Z,1022.46
2018-09-12T10:02:59.688Z,1022.48
2018-09-12T10:03:59.691Z,1022.48
2018-09-12T10:04:59.663Z,1022.5
2018-09-12T10:05:59.831Z,1022.47
2018-09-12T10:06:59.672Z,1022.48
2018-09-12T10:07:59.842Z,1022.48
2018-09-12T10:08:59.732Z,1022.49
2018-09-12T10:09:59.616Z,1022.47
2018-09-12T10:10:59.773Z,1022.43
2018-09-12T10:11:59.818Z,1022.41
2018-09-12T10:12:59.639Z,1022.4
2018-09-12T10:14:00.177Z,1022.42
2018-09-12T10:14:59.664Z,1022.41
2018-09-12T10:15:59.462Z,1022.36
2018-09-12T10:17:00.085Z,1022.38
2018-09-12T10:17:59.681Z,1022.34
2018-09-12T10:18:59.660Z,1022.3
2018-09-12T10:19:59.987Z,1022.31
2018-09-12T10:20:59.635Z,1022.31
2018-09-12T10:21:59.721Z,1022.31
2018-09-12T10:22:59.771Z,1022.33
2018-09-12T10:23:59.563Z,1022.35
2018-09-12T10:25:00.041Z,1022.24
2018-09-12T10:25:59.595Z,1022.24
2018-09-12T10:26:59.683Z,1022.3
2018-09-12T10:27:59.823Z,1022.21
2018-09-12T10:28:59.709Z,1022.28
2018-09-12T10:29:59.767Z,1022.21
2018-09-12T10:30:59.612Z,1022.19
2018-09-12T10:31:59.631Z,1022.15
2018-09-12T10:32:59.683Z,1022.13
2018-09-12T10:33:59.607Z,1022.18
2018-09-12T10:34:59.731Z,1022.14
2018-09-12T10:35:59.625Z,1022.11
2018-09-12T10:36:59.699Z,1022.14
2018-09-12T10:38:00.060Z,1022.08
2018-09-12T10:39:00.075Z,1022.07
2018-09-12T10:40:00.263Z,1022.06
2018-09-12T10:40:59.749Z,1022.06
2018-09-12T10:41:59.733Z,1022.07
2018-09-12T10:42:59.678Z,1022.08
2018-09-12T10:43:59.746Z,1022.01
2018-09-12T10:44:59.716Z,1022.01
2018-09-12T10:45:59.659Z,1022.03
2018-09-12T10:46:59.609Z,1021.98
2018-09-12T10:47:59.595Z,1021.95
2018-09-12T10:48:59.626Z,1021.92
2018-09-12T10:49:59.669Z,1021.93
2018-09-12T10:50:59.661Z,1021.95
2018-09-12T10:51:59.605Z,1021.86
2018-09-12T10:52:59.686Z,1021.88
2018-09-12T10:53:59.611Z,1021.88
2018-09-12T10:54:59.758Z,1021.88
2018-09-12T10:55:59.784Z,1021.92
2018-09-12T10:56:59.688Z,1021.91
2018-09-12T10:57:59.649Z,1021.91
2018-09-12T10:58:59.767Z,1021.86
2018-09-12T10:59:59.643Z,1021.85
2018-09-12T11:00:59.568Z,1021.84
2018-09-12T11:01:59.795Z,1021.81
2018-09-12T11:02:59.692Z,1021.76
2018-09-12T11:03:59.816Z,1021.76
2018-09-12T11:04:59.802Z,1021.72
2018-09-12T11:05:59.808Z,1021.71
2018-09-12T11:06:59.841Z,1021.72
2018-09-12T11:07:59.730Z,1021.71
2018-09-12T11:08:59.748Z,1021.66
2018-09-12T11:09:59.872Z,1021.63
2018-09-12T11:10:59.646Z,1021.64
2018-09-12T11:11:59.757Z,1021.64
2018-09-12T11:12:59.760Z,1021.68
2018-09-12T11:13:59.763Z,1021.64
2018-09-12T11:14:59.763Z,1021.65
2018-09-12T11:15:59.774Z,1021.65
2018-09-12T11:16:59.781Z,1021.59
2018-09-12T11:17:59.701Z,1021.54
2018-09-12T11:19:00.022Z,1021.57
2018-09-12T11:19:59.906Z,1021.52
2018-09-12T11:20:59.812Z,1021.49
2018-09-12T11:22:00.231Z,1021.49
2018-09-12T11:23:00.440Z,1021.5
2018-09-12T11:23:59.792Z,1021.5
2018-09-12T11:24:59.644Z,1021.47
2018-09-12T11:26:00.780Z,1021.42
2018-09-12T11:26:59.854Z,1021.44
2018-09-12T11:27:59.975Z,1021.45
2018-09-12T11:28:59.732Z,1021.4
2018-09-12T11:29:59.943Z,1021.4
2018-09-12T11:30:59.678Z,1021.39
2018-09-12T11:31:59.785Z,1021.43
2018-09-12T11:32:59.633Z,1021.39
2018-09-12T11:33:59.702Z,1021.37
2018-09-12T11:34:59.699Z,1021.36
2018-09-12T11:35:59.885Z,1021.35
2018-09-12T11:36:59.927Z,1021.34
2018-09-12T11:37:59.823Z,1021.32
2018-09-12T11:38:59.733Z,1021.3
2018-09-12T11:39:59.836Z,1021.24
2018-09-12T11:40:59.582Z,1021.25
2018-09-12T11:42:00.071Z,1021.25
2018-09-12T11:42:59.662Z,1021.22
2018-09-12T11:44:00.091Z,1021.24
2018-09-12T11:45:00.092Z,1021.24
2018-09-12T11:45:59.772Z,1021.21
2018-09-12T11:46:59.789Z,1021.18
2018-09-12T11:47:59.722Z,1021.18
2018-09-12T11:48:59.863Z,1021.2
2018-09-12T11:50:00.233Z,1021.23
2018-09-12T11:51:00.050Z,1021.13
2018-09-12T11:51:59.871Z,1021.18
2018-09-12T11:52:59.809Z,1021.16
2018-09-12T11:53:59.835Z,1021.13
2018-09-12T11:54:59.749Z,1021.13
2018-09-12T11:55:59.705Z,1021.15
2018-09-12T11:56:59.784Z,1021.13
2018-09-12T11:57:59.858Z,1021.11
2018-09-12T11:58:59.691Z,1021.05
2018-09-12T11:59:59.991Z,1021.04
2018-09-12T12:00:59.807Z,1021.02
2018-09-12T12:01:59.829Z,1021.05
2018-09-12T12:02:59.695Z,1021.03
2018-09-12T12:03:59.740Z,1020.98
2018-09-12T12:05:00.322Z,1021.03
2018-09-12T12:05:59.709Z,1020.96
2018-09-12T12:06:59.720Z,1020.95
2018-09-12T12:07:59.839Z,1020.93
2018-09-12T12:08:59.698Z,1020.98